sensor_id;sensor_type;location;lat;lon;timestamp;P1;P2;P0
72485;PMS5003;60509;47.308;-122.428;2022-08-30T00:00:32;0;0;
72485;PMS5003;60509;47.308;-122.428;2022-08-30T00:02:58;0;0;
72485;PMS5003;60509;47.308;-122.428;2022-08-30T00:05:22;0;0;
72485;PMS5003;60509;47.308;-122.428;2022-08-30T00:07:47;0;0;
72485;PMS5003;60509;47.308;-122.428;2022-08-30T00:10:12;0;0;
72485;PMS5003;60509;47.308;-122.428;2022-08-30T00:12:38;0;0;
72485;PMS5003;60509;47.308;-122.428;2022-08-30T00:15:03;0;0;
72485;PMS5003;60509;47.308;-122.428;2022-08-30T00:17:28;1;0;
72485;PMS5003;60509;47.308;-122.428;2022-08-30T00:19:53;0;0;
72485;PMS5003;60509;47.308;-122.428;2022-08-30T00:22:18;0;0;
72485;PMS5003;60509;47.308;-122.428;2022-08-30T00:24:44;0;0;
72485;PMS5003;60509;47.308;-122.428;2022-08-30T00:27:10;0;0;
72485;PMS5003;60509;47.308;-122.428;2022-08-30T00:29:36;0;0;
72485;PMS5003;60509;47.308;-122.428;2022-08-30T00:32:01;0;0;
72485;PMS5003;60509;47.308;-122.428;2022-08-30T00:34:26;0;0;
72485;PMS5003;60509;47.308;-122.428;2022-08-30T00:36:51;0;0;
72485;PMS5003;60509;47.308;-122.428;2022-08-30T00:39:16;0;0;
72485;PMS5003;60509;47.308;-122.428;2022-08-30T00:41:41;0;0;
72485;PMS5003;60509;47.308;-122.428;2022-08-30T00:44:07;0;0;
72485;PMS5003;60509;47.308;-122.428;2022-08-30T00:46:32;0;0;
72485;PMS5003;60509;47.308;-122.428;2022-08-30T00:48:57;0;0;
72485;PMS5003;60509;47.308;-122.428;2022-08-30T00:51:22;0;0;
72485;PMS5003;60509;47.308;-122.428;2022-08-30T00:53:48;0;0;
72485;PMS5003;60509;47.308;-122.428;2022-08-30T00:56:12;0;0;
72485;PMS5003;60509;47.308;-122.428;2022-08-30T00:58:39;0;0;
72485;PMS5003;60509;47.308;-122.428;2022-08-30T01:01:03;0;0;
72485;PMS5003;60509;47.308;-122.428;2022-08-30T01:03:28;0;0;
72485;PMS5003;60509;47.308;-122.428;2022-08-30T01:05:53;0;0;
72485;PMS5003;60509;47.308;-122.428;2022-08-30T01:08:19;0;0;
72485;PMS5003;60509;47.308;-122.428;2022-08-30T01:10:43;0;0;
72485;PMS5003;60509;47.308;-122.428;2022-08-30T01:13:09;0;0;
72485;PMS5003;60509;47.308;-122.428;2022-08-30T01:15:34;0;0;
72485;PMS5003;60509;47.308;-122.428;2022-08-30T01:17:59;0;0;
72485;PMS5003;60509;47.308;-122.428;2022-08-30T01:20:25;0;0;
72485;PMS5003;60509;47.308;-122.428;2022-08-30T01:22:57;0;0;
72485;PMS5003;60509;47.308;-122.428;2022-08-30T01:25:15;0;0;
72485;PMS5003;60509;47.308;-122.428;2022-08-30T01:27:40;0;0;
72485;PMS5003;60509;47.308;-122.428;2022-08-30T01:30:05;0;0;
72485;PMS5003;60509;47.308;-122.428;2022-08-30T01:32:29;0;0;
72485;PMS5003;60509;47.308;-122.428;2022-08-30T01:34:55;0;0;
72485;PMS5003;60509;47.308;-122.428;2022-08-30T01:37:22;0;0;
72485;PMS5003;60509;47.308;-122.428;2022-08-30T01:39:45;0;0;
72485;PMS5003;60509;47.308;-122.428;2022-08-30T01:42:09;0;0;
72485;PMS5003;60509;47.308;-122.428;2022-08-30T01:44:34;0;0;
72485;PMS5003;60509;47.308;-122.428;2022-08-30T01:46:59;0;0;
72485;PMS5003;60509;47.308;-122.428;2022-08-30T01:49:24;0;0;
72485;PMS5003;60509;47.308;-122.428;2022-08-30T01:51:49;0;0;
72485;PMS5003;60509;47.308;-122.428;2022-08-30T01:54:14;0;0;
72485;PMS5003;60509;47.308;-122.428;2022-08-30T01:56:40;0;0;
72485;PMS5003;60509;47.308;-122.428;2022-08-30T01:59:05;0;0;
72485;PMS5003;60509;47.308;-122.428;2022-08-30T02:01:31;0;0;
72485;PMS5003;60509;47.308;-122.428;2022-08-30T02:03:55;0;0;
72485;PMS5003;60509;47.308;-122.428;2022-08-30T02:06:20;0;0;
72485;PMS5003;60509;47.308;-122.428;2022-08-30T02:08:45;0;0;
72485;PMS5003;60509;47.308;-122.428;2022-08-30T02:11:11;0;0;
72485;PMS5003;60509;47.308;-122.428;2022-08-30T02:13:36;3;3;
72485;PMS5003;60509;47.308;-122.428;2022-08-30T02:16:01;24;24;
72485;PMS5003;60509;47.308;-122.428;2022-08-30T02:18:26;42;42;
72485;PMS5003;60509;47.308;-122.428;2022-08-30T02:20:51;4992;4992;
72485;PMS5003;60509;47.308;-122.428;2022-08-30T02:23:17;4992;4992;
72485;PMS5003;60509;47.308;-122.428;2022-08-30T02:25:42;4992;4992;
72485;PMS5003;60509;47.308;-122.428;2022-08-30T02:28:07;4984;4984;
72485;PMS5003;60509;47.308;-122.428;2022-08-30T02:30:33;5000;5000;
72485;PMS5003;60509;47.308;-122.428;2022-08-30T02:32:59;4984;4984;
72485;PMS5003;60509;47.308;-122.428;2022-08-30T02:35:24;4992;4992;
72485;PMS5003;60509;47.308;-122.428;2022-08-30T02:37:50;4992;4992;
72485;PMS5003;60509;47.308;-122.428;2022-08-30T02:40:16;4992;4992;
72485;PMS5003;60509;47.308;-122.428;2022-08-30T02:42:42;5000;5000;
72485;PMS5003;60509;47.308;-122.428;2022-08-30T02:45:08;4984;4984;
72485;PMS5003;60509;47.308;-122.428;2022-08-30T02:47:33;5000;5000;
72485;PMS5003;60509;47.308;-122.428;2022-08-30T02:49:59;4984;4984;
72485;PMS5003;60509;47.308;-122.428;2022-08-30T02:52:24;4992;4992;
72485;PMS5003;60509;47.308;-122.428;2022-08-30T02:54:50;4984;4984;
72485;PMS5003;60509;47.308;-122.428;2022-08-30T02:57:15;5000;5000;
72485;PMS5003;60509;47.308;-122.428;2022-08-30T02:59:41;4992;4992;
72485;PMS5003;60509;47.308;-122.428;2022-08-30T03:02:07;4992;4992;
72485;PMS5003;60509;47.308;-122.428;2022-08-30T03:04:32;4992;4992;
72485;PMS5003;60509;47.308;-122.428;2022-08-30T03:06:58;5000;5000;
72485;PMS5003;60509;47.308;-122.428;2022-08-30T03:09:24;4984;4984;
72485;PMS5003;60509;47.308;-122.428;2022-08-30T03:11:49;5000;5000;
72485;PMS5003;60509;47.308;-122.428;2022-08-30T03:14:15;5000;5000;
72485;PMS5003;60509;47.308;-122.428;2022-08-30T03:16:41;4984;4984;
72485;PMS5003;60509;47.308;-122.428;2022-08-30T03:19:06;4992;4992;
72485;PMS5003;60509;47.308;-122.428;2022-08-30T03:21:32;4992;4992;
72485;PMS5003;60509;47.308;-122.428;2022-08-30T03:23:57;4976;4976;
72485;PMS5003;60509;47.308;-122.428;2022-08-30T03:26:23;4984;4984;
72485;PMS5003;60509;47.308;-122.428;2022-08-30T03:28:49;5000;5000;
72485;PMS5003;60509;47.308;-122.428;2022-08-30T03:31:15;5000;5000;
72485;PMS5003;60509;47.308;-122.428;2022-08-30T03:33:40;4984;4984;
72485;PMS5003;60509;47.308;-122.428;2022-08-30T03:36:07;4976;4976;
72485;PMS5003;60509;47.308;-122.428;2022-08-30T03:38:32;4992;4992;
72485;PMS5003;60509;47.308;-122.428;2022-08-30T03:40:57;5000;5000;
72485;PMS5003;60509;47.308;-122.428;2022-08-30T03:43:23;4992;4992;
72485;PMS5003;60509;47.308;-122.428;2022-08-30T03:45:49;5000;5000;
72485;PMS5003;60509;47.308;-122.428;2022-08-30T03:48:15;5000;5000;
72485;PMS5003;60509;47.308;-122.428;2022-08-30T03:50:40;5000;5000;
72485;PMS5003;60509;47.308;-122.428;2022-08-30T03:53:06;5000;5000;
72485;PMS5003;60509;47.308;-122.428;2022-08-30T03:55:32;4992;4992;
72485;PMS5003;60509;47.308;-122.428;2022-08-30T03:57:58;5000;5000;
72485;PMS5003;60509;47.308;-122.428;2022-08-30T04:00:24;5000;5000;
72485;PMS5003;60509;47.308;-122.428;2022-08-30T04:02:49;4992;4992;
72485;PMS5003;60509;47.308;-122.428;2022-08-30T04:05:15;4992;4992;
72485;PMS5003;60509;47.308;-122.428;2022-08-30T04:07:41;4984;4984;
72485;PMS5003;60509;47.308;-122.428;2022-08-30T04:10:07;5000;5000;
72485;PMS5003;60509;47.308;-122.428;2022-08-30T04:12:32;4984;4984;
72485;PMS5003;60509;47.308;-122.428;2022-08-30T04:14:58;5000;5000;
72485;PMS5003;60509;47.308;-122.428;2022-08-30T04:17:24;4984;4984;
72485;PMS5003;60509;47.308;-122.428;2022-08-30T04:19:49;5000;5000;
72485;PMS5003;60509;47.308;-122.428;2022-08-30T04:22:15;4992;4992;
72485;PMS5003;60509;47.308;-122.428;2022-08-30T04:24:41;5000;5000;
72485;PMS5003;60509;47.308;-122.428;2022-08-30T04:27:07;5000;5000;
72485;PMS5003;60509;47.308;-122.428;2022-08-30T04:29:33;5000;5000;
72485;PMS5003;60509;47.308;-122.428;2022-08-30T04:31:58;4992;4992;
72485;PMS5003;60509;47.308;-122.428;2022-08-30T04:34:24;4984;4984;
72485;PMS5003;60509;47.308;-122.428;2022-08-30T04:36:50;4992;4992;
72485;PMS5003;60509;47.308;-122.428;2022-08-30T04:39:16;4984;4984;
72485;PMS5003;60509;47.308;-122.428;2022-08-30T04:41:41;4992;4992;
72485;PMS5003;60509;47.308;-122.428;2022-08-30T04:44:07;4984;4984;
72485;PMS5003;60509;47.308;-122.428;2022-08-30T04:46:35;5000;5000;
72485;PMS5003;60509;47.308;-122.428;2022-08-30T04:48:58;5000;5000;
72485;PMS5003;60509;47.308;-122.428;2022-08-30T04:51:24;5000;5000;
72485;PMS5003;60509;47.308;-122.428;2022-08-30T04:53:50;5000;5000;
72485;PMS5003;60509;47.308;-122.428;2022-08-30T04:56:17;4984;4984;
72485;PMS5003;60509;47.308;-122.428;2022-08-30T04:58:42;5000;5000;
72485;PMS5003;60509;47.308;-122.428;2022-08-30T05:01:10;5000;5000;
72485;PMS5003;60509;47.308;-122.428;2022-08-30T05:03:33;5000;5000;
72485;PMS5003;60509;47.308;-122.428;2022-08-30T05:05:59;4992;4992;
72485;PMS5003;60509;47.308;-122.428;2022-08-30T05:08:25;4992;4992;
72485;PMS5003;60509;47.308;-122.428;2022-08-30T05:10:51;4992;4992;
72485;PMS5003;60509;47.308;-122.428;2022-08-30T05:13:17;4984;4984;
72485;PMS5003;60509;47.308;-122.428;2022-08-30T05:15:42;4984;4984;
72485;PMS5003;60509;47.308;-122.428;2022-08-30T05:18:08;4984;4984;
72485;PMS5003;60509;47.308;-122.428;2022-08-30T05:20:34;4992;4992;
72485;PMS5003;60509;47.308;-122.428;2022-08-30T05:23:00;4992;4992;
72485;PMS5003;60509;47.308;-122.428;2022-08-30T05:25:26;5000;5000;
72485;PMS5003;60509;47.308;-122.428;2022-08-30T05:27:52;4992;4992;
72485;PMS5003;60509;47.308;-122.428;2022-08-30T05:30:18;4992;4992;
72485;PMS5003;60509;47.308;-122.428;2022-08-30T05:32:43;4992;4992;
72485;PMS5003;60509;47.308;-122.428;2022-08-30T05:35:10;5000;5000;
72485;PMS5003;60509;47.308;-122.428;2022-08-30T05:37:35;4992;4992;
72485;PMS5003;60509;47.308;-122.428;2022-08-30T05:40:00;4992;4992;
72485;PMS5003;60509;47.308;-122.428;2022-08-30T05:42:26;4984;4984;
72485;PMS5003;60509;47.308;-122.428;2022-08-30T05:44:52;4992;4992;
72485;PMS5003;60509;47.308;-122.428;2022-08-30T05:47:18;4984;4984;
72485;PMS5003;60509;47.308;-122.428;2022-08-30T05:49:43;4992;4992;
72485;PMS5003;60509;47.308;-122.428;2022-08-30T05:52:09;5000;5000;
72485;PMS5003;60509;47.308;-122.428;2022-08-30T05:54:35;4992;4992;
72485;PMS5003;60509;47.308;-122.428;2022-08-30T05:57:01;4984;4984;
72485;PMS5003;60509;47.308;-122.428;2022-08-30T05:59:27;4992;4992;
72485;PMS5003;60509;47.308;-122.428;2022-08-30T06:01:53;5000;5000;
72485;PMS5003;60509;47.308;-122.428;2022-08-30T06:04:18;4984;4984;
72485;PMS5003;60509;47.308;-122.428;2022-08-30T06:06:44;5000;5000;
72485;PMS5003;60509;47.308;-122.428;2022-08-30T06:09:11;5000;5000;
72485;PMS5003;60509;47.308;-122.428;2022-08-30T06:11:36;5000;5000;
72485;PMS5003;60509;47.308;-122.428;2022-08-30T06:14:02;5000;5000;
72485;PMS5003;60509;47.308;-122.428;2022-08-30T06:16:28;5000;5000;
72485;PMS5003;60509;47.308;-122.428;2022-08-30T06:18:54;5000;5000;
72485;PMS5003;60509;47.308;-122.428;2022-08-30T06:21:21;4992;4992;
72485;PMS5003;60509;47.308;-122.428;2022-08-30T06:23:45;4984;4984;
72485;PMS5003;60509;47.308;-122.428;2022-08-30T06:26:11;4992;4992;
72485;PMS5003;60509;47.308;-122.428;2022-08-30T06:28:37;5000;5000;
72485;PMS5003;60509;47.308;-122.428;2022-08-30T06:31:04;4992;4992;
72485;PMS5003;60509;47.308;-122.428;2022-08-30T06:33:28;4984;4984;
72485;PMS5003;60509;47.308;-122.428;2022-08-30T06:35:54;5000;5000;
72485;PMS5003;60509;47.308;-122.428;2022-08-30T06:38:20;4992;4992;
72485;PMS5003;60509;47.308;-122.428;2022-08-30T06:40:46;4992;4992;
72485;PMS5003;60509;47.308;-122.428;2022-08-30T06:43:11;5000;5000;
72485;PMS5003;60509;47.308;-122.428;2022-08-30T06:45:37;4984;4984;
72485;PMS5003;60509;47.308;-122.428;2022-08-30T06:48:03;4992;4992;
72485;PMS5003;60509;47.308;-122.428;2022-08-30T06:50:29;4992;4992;
72485;PMS5003;60509;47.308;-122.428;2022-08-30T06:52:55;4992;4992;
72485;PMS5003;60509;47.308;-122.428;2022-08-30T06:55:21;4992;4992;
72485;PMS5003;60509;47.308;-122.428;2022-08-30T06:57:46;4992;4992;
72485;PMS5003;60509;47.308;-122.428;2022-08-30T07:00:14;5000;5000;
72485;PMS5003;60509;47.308;-122.428;2022-08-30T07:02:38;4992;4992;
72485;PMS5003;60509;47.308;-122.428;2022-08-30T07:05:04;4992;4992;
72485;PMS5003;60509;47.308;-122.428;2022-08-30T07:07:30;5000;5000;
72485;PMS5003;60509;47.308;-122.428;2022-08-30T07:09:56;5000;5000;
72485;PMS5003;60509;47.308;-122.428;2022-08-30T07:12:21;4992;4992;
72485;PMS5003;60509;47.308;-122.428;2022-08-30T07:14:47;4992;4992;
72485;PMS5003;60509;47.308;-122.428;2022-08-30T07:17:13;5000;5000;
72485;PMS5003;60509;47.308;-122.428;2022-08-30T07:19:39;4992;4992;
72485;PMS5003;60509;47.308;-122.428;2022-08-30T07:22:05;4992;4992;
72485;PMS5003;60509;47.308;-122.428;2022-08-30T07:24:30;5000;5000;
72485;PMS5003;60509;47.308;-122.428;2022-08-30T07:26:56;5000;5000;
72485;PMS5003;60509;47.308;-122.428;2022-08-30T07:29:22;4992;4992;
72485;PMS5003;60509;47.308;-122.428;2022-08-30T07:31:48;5000;5000;
72485;PMS5003;60509;47.308;-122.428;2022-08-30T07:34:14;4984;4984;
72485;PMS5003;60509;47.308;-122.428;2022-08-30T07:36:40;4992;4992;
72485;PMS5003;60509;47.308;-122.428;2022-08-30T07:39:11;4992;4992;
72485;PMS5003;60509;47.308;-122.428;2022-08-30T07:41:32;5000;5000;
72485;PMS5003;60509;47.308;-122.428;2022-08-30T07:43:57;4992;4992;
72485;PMS5003;60509;47.308;-122.428;2022-08-30T07:46:23;5000;5000;
72485;PMS5003;60509;47.308;-122.428;2022-08-30T07:48:49;4992;4992;
72485;PMS5003;60509;47.308;-122.428;2022-08-30T07:51:16;4992;4992;
72485;PMS5003;60509;47.308;-122.428;2022-08-30T07:53:41;4992;4992;
72485;PMS5003;60509;47.308;-122.428;2022-08-30T07:56:07;5000;5000;
72485;PMS5003;60509;47.308;-122.428;2022-08-30T07:58:33;5000;5000;
72485;PMS5003;60509;47.308;-122.428;2022-08-30T08:00:59;4984;4984;
72485;PMS5003;60509;47.308;-122.428;2022-08-30T08:03:24;4992;4992;
72485;PMS5003;60509;47.308;-122.428;2022-08-30T08:05:50;4992;4992;
72485;PMS5003;60509;47.308;-122.428;2022-08-30T08:08:16;5000;5000;
72485;PMS5003;60509;47.308;-122.428;2022-08-30T08:10:42;4992;4992;
72485;PMS5003;60509;47.308;-122.428;2022-08-30T08:13:08;5000;5000;
72485;PMS5003;60509;47.308;-122.428;2022-08-30T08:15:34;4992;4992;
72485;PMS5003;60509;47.308;-122.428;2022-08-30T08:18:00;4992;4992;
72485;PMS5003;60509;47.308;-122.428;2022-08-30T08:20:26;4992;4992;
72485;PMS5003;60509;47.308;-122.428;2022-08-30T08:22:51;4992;4992;
72485;PMS5003;60509;47.308;-122.428;2022-08-30T08:25:17;4984;4984;
72485;PMS5003;60509;47.308;-122.428;2022-08-30T08:27:45;5000;5000;
72485;PMS5003;60509;47.308;-122.428;2022-08-30T08:30:09;5000;5000;
72485;PMS5003;60509;47.308;-122.428;2022-08-30T08:32:35;4992;4992;
72485;PMS5003;60509;47.308;-122.428;2022-08-30T08:35:01;4992;4992;
72485;PMS5003;60509;47.308;-122.428;2022-08-30T08:37:27;4992;4992;
72485;PMS5003;60509;47.308;-122.428;2022-08-30T08:39:52;5000;5000;
72485;PMS5003;60509;47.308;-122.428;2022-08-30T08:42:20;5000;5000;
72485;PMS5003;60509;47.308;-122.428;2022-08-30T08:44:46;4992;4992;
72485;PMS5003;60509;47.308;-122.428;2022-08-30T08:47:11;4992;4992;
72485;PMS5003;60509;47.308;-122.428;2022-08-30T08:49:36;5000;5000;
72485;PMS5003;60509;47.308;-122.428;2022-08-30T08:52:02;4984;4984;
72485;PMS5003;60509;47.308;-122.428;2022-08-30T08:54:31;5000;5000;
72485;PMS5003;60509;47.308;-122.428;2022-08-30T08:56:54;4984;4984;
72485;PMS5003;60509;47.308;-122.428;2022-08-30T08:59:20;4992;4992;
72485;PMS5003;60509;47.308;-122.428;2022-08-30T09:01:46;5000;5000;
72485;PMS5003;60509;47.308;-122.428;2022-08-30T09:04:13;4992;4992;
72485;PMS5003;60509;47.308;-122.428;2022-08-30T09:06:44;5000;5000;
72485;PMS5003;60509;47.308;-122.428;2022-08-30T09:09:03;4992;4992;
72485;PMS5003;60509;47.308;-122.428;2022-08-30T09:11:30;5000;5000;
72485;PMS5003;60509;47.308;-122.428;2022-08-30T09:13:55;4992;4992;
72485;PMS5003;60509;47.308;-122.428;2022-08-30T09:16:57;4992;4992;
72485;PMS5003;60509;47.308;-122.428;2022-08-30T09:18:47;4984;4984;
72485;PMS5003;60509;47.308;-122.428;2022-08-30T09:21:13;5000;5000;
72485;PMS5003;60509;47.308;-122.428;2022-08-30T09:23:45;5000;5000;
72485;PMS5003;60509;47.308;-122.428;2022-08-30T09:26:05;4992;4992;
72485;PMS5003;60509;47.308;-122.428;2022-08-30T09:28:32;4992;4992;
72485;PMS5003;60509;47.308;-122.428;2022-08-30T09:30:58;4992;4992;
72485;PMS5003;60509;47.308;-122.428;2022-08-30T09:33:22;4992;4992;
72485;PMS5003;60509;47.308;-122.428;2022-08-30T09:35:49;4992;4992;
72485;PMS5003;60509;47.308;-122.428;2022-08-30T09:38:16;5000;5000;
72485;PMS5003;60509;47.308;-122.428;2022-08-30T09:40:41;5000;5000;
72485;PMS5003;60509;47.308;-122.428;2022-08-30T09:43:08;4992;4992;
72485;PMS5003;60509;47.308;-122.428;2022-08-30T09:45:33;4992;4992;
72485;PMS5003;60509;47.308;-122.428;2022-08-30T09:47:58;4992;4992;
72485;PMS5003;60509;47.308;-122.428;2022-08-30T09:50:29;5000;5000;
72485;PMS5003;60509;47.308;-122.428;2022-08-30T09:52:55;5000;5000;
72485;PMS5003;60509;47.308;-122.428;2022-08-30T09:55:22;5000;5000;
72485;PMS5003;60509;47.308;-122.428;2022-08-30T09:57:44;5000;5000;
72485;PMS5003;60509;47.308;-122.428;2022-08-30T10:00:10;5000;5000;
72485;PMS5003;60509;47.308;-122.428;2022-08-30T10:02:40;4992;4992;
72485;PMS5003;60509;47.308;-122.428;2022-08-30T10:05:02;5000;5000;
72485;PMS5003;60509;47.308;-122.428;2022-08-30T10:07:27;4992;4992;
72485;PMS5003;60509;47.308;-122.428;2022-08-30T10:09:54;5000;5000;
72485;PMS5003;60509;47.308;-122.428;2022-08-30T10:12:19;5000;5000;
72485;PMS5003;60509;47.308;-122.428;2022-08-30T10:14:48;4992;4992;
72485;PMS5003;60509;47.308;-122.428;2022-08-30T10:17:11;5000;5000;
72485;PMS5003;60509;47.308;-122.428;2022-08-30T10:19:40;5000;5000;
72485;PMS5003;60509;47.308;-122.428;2022-08-30T10:22:02;5000;5000;
72485;PMS5003;60509;47.308;-122.428;2022-08-30T10:24:29;4992;4992;
72485;PMS5003;60509;47.308;-122.428;2022-08-30T10:26:54;4992;4992;
72485;PMS5003;60509;47.308;-122.428;2022-08-30T10:29:21;5000;5000;
72485;PMS5003;60509;47.308;-122.428;2022-08-30T10:31:46;5000;5000;
72485;PMS5003;60509;47.308;-122.428;2022-08-30T10:34:13;4992;4992;
72485;PMS5003;60509;47.308;-122.428;2022-08-30T10:36:39;5000;5000;
72485;PMS5003;60509;47.308;-122.428;2022-08-30T10:39:03;4984;4984;
72485;PMS5003;60509;47.308;-122.428;2022-08-30T10:41:32;4984;4984;
72485;PMS5003;60509;47.308;-122.428;2022-08-30T10:43:57;4992;4992;
72485;PMS5003;60509;47.308;-122.428;2022-08-30T10:46:23;5000;5000;
72485;PMS5003;60509;47.308;-122.428;2022-08-30T10:48:47;4992;4992;
72485;PMS5003;60509;47.308;-122.428;2022-08-30T10:51:14;4992;4992;
72485;PMS5003;60509;47.308;-122.428;2022-08-30T10:53:40;4992;4992;
72485;PMS5003;60509;47.308;-122.428;2022-08-30T10:56:05;5000;5000;
72485;PMS5003;60509;47.308;-122.428;2022-08-30T10:58:30;4992;4992;
72485;PMS5003;60509;47.308;-122.428;2022-08-30T11:01:01;4992;4992;
72485;PMS5003;60509;47.308;-122.428;2022-08-30T11:03:28;4992;4992;
72485;PMS5003;60509;47.308;-122.428;2022-08-30T11:06:21;4992;4992;
72485;PMS5003;60509;47.308;-122.428;2022-08-30T11:08:17;5000;5000;
72485;PMS5003;60509;47.308;-122.428;2022-08-30T11:10:44;4992;4992;
72485;PMS5003;60509;47.308;-122.428;2022-08-30T11:13:07;5000;5000;
72485;PMS5003;60509;47.308;-122.428;2022-08-30T11:15:33;5000;5000;
72485;PMS5003;60509;47.308;-122.428;2022-08-30T11:17:59;5000;5000;
72485;PMS5003;60509;47.308;-122.428;2022-08-30T11:20:41;5000;5000;
72485;PMS5003;60509;47.308;-122.428;2022-08-30T11:23:18;5000;5000;
72485;PMS5003;60509;47.308;-122.428;2022-08-30T11:25:16;4984;4984;
72485;PMS5003;60509;47.308;-122.428;2022-08-30T11:27:44;4992;4992;
72485;PMS5003;60509;47.308;-122.428;2022-08-30T11:31:30;4992;4992;
72485;PMS5003;60509;47.308;-122.428;2022-08-30T11:33:02;5000;5000;
72485;PMS5003;60509;47.308;-122.428;2022-08-30T11:35:36;5000;5000;
72485;PMS5003;60509;47.308;-122.428;2022-08-30T11:37:52;4992;4992;
72485;PMS5003;60509;47.308;-122.428;2022-08-30T11:41:05;4992;4992;
72485;PMS5003;60509;47.308;-122.428;2022-08-30T11:42:45;4992;4992;
72485;PMS5003;60509;47.308;-122.428;2022-08-30T11:46:16;5000;5000;
72485;PMS5003;60509;47.308;-122.428;2022-08-30T11:47:37;4992;4992;
72485;PMS5003;60509;47.308;-122.428;2022-08-30T11:50:03;4984;4984;
72485;PMS5003;60509;47.308;-122.428;2022-08-30T11:52:31;4992;4992;
72485;PMS5003;60509;47.308;-122.428;2022-08-30T11:54:59;5000;5000;
72485;PMS5003;60509;47.308;-122.428;2022-08-30T11:57:21;4992;4992;
72485;PMS5003;60509;47.308;-122.428;2022-08-30T11:59:48;4992;4992;
72485;PMS5003;60509;47.308;-122.428;2022-08-30T12:02:37;4992;4992;
72485;PMS5003;60509;47.308;-122.428;2022-08-30T12:04:42;5000;5000;
72485;PMS5003;60509;47.308;-122.428;2022-08-30T12:07:05;5000;5000;
72485;PMS5003;60509;47.308;-122.428;2022-08-30T12:10:19;5000;5000;
72485;PMS5003;60509;47.308;-122.428;2022-08-30T12:12:50;4992;4992;
72485;PMS5003;60509;47.308;-122.428;2022-08-30T12:14:58;4992;4992;
72485;PMS5003;60509;47.308;-122.428;2022-08-30T12:17:29;5000;5000;
72485;PMS5003;60509;47.308;-122.428;2022-08-30T12:19:50;4992;4992;
72485;PMS5003;60509;47.308;-122.428;2022-08-30T12:22:16;5000;5000;
72485;PMS5003;60509;47.308;-122.428;2022-08-30T12:24:42;5000;5000;
72485;PMS5003;60509;47.308;-122.428;2022-08-30T12:27:20;4984;4984;
72485;PMS5003;60509;47.308;-122.428;2022-08-30T12:29:34;5000;5000;
72485;PMS5003;60509;47.308;-122.428;2022-08-30T12:32:01;4992;4992;
72485;PMS5003;60509;47.308;-122.428;2022-08-30T12:34:27;5000;5000;
72485;PMS5003;60509;47.308;-122.428;2022-08-30T12:36:54;4992;4992;
72485;PMS5003;60509;47.308;-122.428;2022-08-30T12:39:19;4992;4992;
72485;PMS5003;60509;47.308;-122.428;2022-08-30T12:41:44;4992;4992;
72485;PMS5003;60509;47.308;-122.428;2022-08-30T12:44:13;4992;4992;
72485;PMS5003;60509;47.308;-122.428;2022-08-30T12:46:36;5000;5000;
72485;PMS5003;60509;47.308;-122.428;2022-08-30T12:49:02;5000;5000;
72485;PMS5003;60509;47.308;-122.428;2022-08-30T12:51:33;4992;4992;
72485;PMS5003;60509;47.308;-122.428;2022-08-30T12:53:58;4992;4992;
72485;PMS5003;60509;47.308;-122.428;2022-08-30T12:56:20;5000;5000;
72485;PMS5003;60509;47.308;-122.428;2022-08-30T12:58:47;5000;5000;
72485;PMS5003;60509;47.308;-122.428;2022-08-30T13:01:15;5000;5000;
72485;PMS5003;60509;47.308;-122.428;2022-08-30T13:03:38;5000;5000;
72485;PMS5003;60509;47.308;-122.428;2022-08-30T13:06:04;5000;5000;
72485;PMS5003;60509;47.308;-122.428;2022-08-30T13:08:30;5000;5000;
72485;PMS5003;60509;47.308;-122.428;2022-08-30T13:10:57;4992;4992;
72485;PMS5003;60509;47.308;-122.428;2022-08-30T13:13:27;4992;4992;
72485;PMS5003;60509;47.308;-122.428;2022-08-30T13:15:47;4992;4992;
72485;PMS5003;60509;47.308;-122.428;2022-08-30T13:18:16;4992;4992;
72485;PMS5003;60509;47.308;-122.428;2022-08-30T13:20:39;4992;4992;
72485;PMS5003;60509;47.308;-122.428;2022-08-30T13:23:06;4984;4984;
72485;PMS5003;60509;47.308;-122.428;2022-08-30T13:25:31;4992;4992;
72485;PMS5003;60509;47.308;-122.428;2022-08-30T13:27:56;5000;5000;
72485;PMS5003;60509;47.308;-122.428;2022-08-30T13:30:22;5000;5000;
72485;PMS5003;60509;47.308;-122.428;2022-08-30T13:32:48;5000;5000;
72485;PMS5003;60509;47.308;-122.428;2022-08-30T13:35:13;4992;4992;
72485;PMS5003;60509;47.308;-122.428;2022-08-30T13:37:38;4992;4992;
72485;PMS5003;60509;47.308;-122.428;2022-08-30T13:40:04;4992;4992;
72485;PMS5003;60509;47.308;-122.428;2022-08-30T13:42:30;5000;5000;
72485;PMS5003;60509;47.308;-122.428;2022-08-30T13:44:56;5000;5000;
72485;PMS5003;60509;47.308;-122.428;2022-08-30T13:47:22;4984;4984;
72485;PMS5003;60509;47.308;-122.428;2022-08-30T13:49:48;4992;4992;
72485;PMS5003;60509;47.308;-122.428;2022-08-30T13:52:15;4984;4984;
72485;PMS5003;60509;47.308;-122.428;2022-08-30T13:54:40;4984;4984;
72485;PMS5003;60509;47.308;-122.428;2022-08-30T13:57:06;4992;4992;
72485;PMS5003;60509;47.308;-122.428;2022-08-30T13:59:32;4992;4992;
72485;PMS5003;60509;47.308;-122.428;2022-08-30T14:01:58;5000;5000;
72485;PMS5003;60509;47.308;-122.428;2022-08-30T14:04:24;4992;4992;
72485;PMS5003;60509;47.308;-122.428;2022-08-30T14:06:50;4984;4984;
72485;PMS5003;60509;47.308;-122.428;2022-08-30T14:09:16;4992;4992;
72485;PMS5003;60509;47.308;-122.428;2022-08-30T14:11:41;5000;5000;
72485;PMS5003;60509;47.308;-122.428;2022-08-30T14:14:06;4992;4992;
72485;PMS5003;60509;47.308;-122.428;2022-08-30T14:16:33;5000;5000;
72485;PMS5003;60509;47.308;-122.428;2022-08-30T14:18:58;4992;4992;
72485;PMS5003;60509;47.308;-122.428;2022-08-30T14:21:24;4992;4992;
72485;PMS5003;60509;47.308;-122.428;2022-08-30T14:23:50;5000;5000;
72485;PMS5003;60509;47.308;-122.428;2022-08-30T14:26:17;4992;4992;
72485;PMS5003;60509;47.308;-122.428;2022-08-30T14:28:41;5000;5000;
72485;PMS5003;60509;47.308;-122.428;2022-08-30T14:31:07;4984;4984;
72485;PMS5003;60509;47.308;-122.428;2022-08-30T14:33:33;4992;4992;
72485;PMS5003;60509;47.308;-122.428;2022-08-30T14:35:59;4984;4984;
72485;PMS5003;60509;47.308;-122.428;2022-08-30T14:38:24;5000;5000;